Dripping Springs' Hourly Summary for Friday, July 6, 2018
Hour Temp
(f)
RH
(%)
Solar Rad.
(MJ/m2)
Rainfall
(in)
Wind
(mph)
7/6/2018 12:00 AM 75 80 0 0 0
7/6/2018 1:00 AM 75 83 0 0 0
7/6/2018 2:00 AM 74 83 0 0 0.05
7/6/2018 3:00 AM 75 81 0 0 0.08
7/6/2018 4:00 AM 76 75 0 0 0.15
7/6/2018 5:00 AM 76 72 0 0 1.39
7/6/2018 6:00 AM 76 79 0.01 0 1.39
7/6/2018 7:00 AM 75 82 0.37 0 0.48
7/6/2018 8:00 AM 78 82 0.98 0 2.04
7/6/2018 9:00 AM 81 72 1.58 0 4.6
7/6/2018 10:00 AM 83 67 2.34 0 5.28
7/6/2018 11:00 AM 85 62 2.65 0 5.74
7/6/2018 12:00 PM 88 58 2.75 0 6.59
7/6/2018 1:00 PM 90 50 2.88 0 8.13
7/6/2018 2:00 PM 91 46 2.9 0 9.05
7/6/2018 3:00 PM 92 41 2.9 0 9.05
7/6/2018 4:00 PM 93 40 2.05 0 8.63
7/6/2018 5:00 PM 93 34 1.97 0 8.82
7/6/2018 6:00 PM 93 37 1.06 0 8.82
7/6/2018 7:00 PM 92 40 0.93 0 7.62
7/6/2018 8:00 PM 90 44 0.55 0 6.58
7/6/2018 9:00 PM 87 52 0.05 0 2.61
7/6/2018 10:00 PM 84 56 0 0 5.43
7/6/2018 11:00 PM 82 65 0 0 5.43
Data Summary 83 61 25.97 0.00 4.50